sensor_id;sensor_type;location;lat;lon;timestamp;pressure;altitude;pressure_sealevel;temperature;humidity
63321;BME280;49449;48.800;9.534;2022-11-18T00:01:13;96784.03;;;8.77;48.91
63321;BME280;49449;48.800;9.534;2022-11-18T00:03:42;96775.09;;;8.88;48.65
63321;BME280;49449;48.800;9.534;2022-11-18T00:06:13;96772.19;;;8.84;48.68
63321;BME280;49449;48.800;9.534;2022-11-18T00:08:41;96774.56;;;8.86;48.44
63321;BME280;49449;48.800;9.534;2022-11-18T00:11:11;96770.38;;;8.95;48.44
63321;BME280;49449;48.800;9.534;2022-11-18T00:13:59;96767.25;;;9.03;48.28
63321;BME280;49449;48.800;9.534;2022-11-18T00:16:45;96770.41;;;9.10;47.66
63321;BME280;49449;48.800;9.534;2022-11-18T00:19:13;96763.84;;;9.13;47.56
63321;BME280;49449;48.800;9.534;2022-11-18T00:21:43;96759.09;;;9.15;47.55
63321;BME280;49449;48.800;9.534;2022-11-18T00:24:11;96757.78;;;9.18;47.36
63321;BME280;49449;48.800;9.534;2022-11-18T00:26:38;96766.19;;;9.15;47.11
63321;BME280;49449;48.800;9.534;2022-11-18T00:29:08;96771.47;;;9.09;47.38
63321;BME280;49449;48.800;9.534;2022-11-18T00:31:36;96776.19;;;9.13;47.58
63321;BME280;49449;48.800;9.534;2022-11-18T00:34:04;96778.84;;;9.13;47.68
63321;BME280;49449;48.800;9.534;2022-11-18T00:36:32;96772.00;;;9.17;47.55
63321;BME280;49449;48.800;9.534;2022-11-18T00:39:03;96775.19;;;9.19;47.73
63321;BME280;49449;48.800;9.534;2022-11-18T00:41:31;96773.34;;;9.24;47.71
63321;BME280;49449;48.800;9.534;2022-11-18T00:44:12;96776.22;;;9.28;47.23
63321;BME280;49449;48.800;9.534;2022-11-18T00:46:41;96780.69;;;9.17;47.33
63321;BME280;49449;48.800;9.534;2022-11-18T00:49:09;96782.00;;;9.04;47.47
63321;BME280;49449;48.800;9.534;2022-11-18T00:51:36;96785.16;;;9.01;47.70
63321;BME280;49449;48.800;9.534;2022-11-18T00:54:06;96782.50;;;9.01;47.79
63321;BME280;49449;48.800;9.534;2022-11-18T00:56:33;96789.66;;;9.06;47.66
63321;BME280;49449;48.800;9.534;2022-11-18T00:59:01;96789.06;;;8.99;47.66
63321;BME280;49449;48.800;9.534;2022-11-18T01:01:29;96792.50;;;8.94;48.02
63321;BME280;49449;48.800;9.534;2022-11-18T01:03:57;96788.53;;;8.97;48.09
63321;BME280;49449;48.800;9.534;2022-11-18T01:06:25;96800.44;;;8.99;48.12
63321;BME280;49449;48.800;9.534;2022-11-18T01:08:53;96795.16;;;8.99;48.21
63321;BME280;49449;48.800;9.534;2022-11-18T01:11:22;96798.06;;;9.03;48.12
63321;BME280;49449;48.800;9.534;2022-11-18T01:14:08;96791.75;;;9.09;48.15
63321;BME280;49449;48.800;9.534;2022-11-18T01:16:35;96790.97;;;9.14;48.34
63321;BME280;49449;48.800;9.534;2022-11-18T01:19:03;96789.66;;;9.16;48.00
63321;BME280;49449;48.800;9.534;2022-11-18T01:21:31;96792.00;;;9.13;48.22
63321;BME280;49449;48.800;9.534;2022-11-18T01:23:59;96788.59;;;9.17;48.19
63321;BME280;49449;48.800;9.534;2022-11-18T01:26:28;96789.41;;;9.23;47.98
63321;BME280;49449;48.800;9.534;2022-11-18T01:28:56;96784.13;;;9.23;48.07
63321;BME280;49449;48.800;9.534;2022-11-18T01:31:24;96787.81;;;9.27;47.85
63321;BME280;49449;48.800;9.534;2022-11-18T01:33:52;96787.31;;;9.30;47.65
63321;BME280;49449;48.800;9.534;2022-11-18T01:36:21;96787.03;;;9.32;47.92
63321;BME280;49449;48.800;9.534;2022-11-18T01:38:50;96783.38;;;9.33;47.42
63321;BME280;49449;48.800;9.534;2022-11-18T01:41:20;96789.16;;;9.29;47.81
63321;BME280;49449;48.800;9.534;2022-11-18T01:43:53;96790.44;;;9.27;47.85
63321;BME280;49449;48.800;9.534;2022-11-18T01:46:23;96785.44;;;9.30;47.97
63321;BME280;49449;48.800;9.534;2022-11-18T01:48:53;96793.66;;;9.34;48.04
63321;BME280;49449;48.800;9.534;2022-11-18T01:51:26;96801.28;;;9.36;47.91
63321;BME280;49449;48.800;9.534;2022-11-18T01:53:58;96798.91;;;9.39;47.92
63321;BME280;49449;48.800;9.534;2022-11-18T01:56:31;96799.72;;;9.40;47.99
63321;BME280;49449;48.800;9.534;2022-11-18T01:59:05;96802.09;;;9.41;47.91
63321;BME280;49449;48.800;9.534;2022-11-18T02:01:34;96805.25;;;9.43;47.79
63321;BME280;49449;48.800;9.534;2022-11-18T02:04:03;96805.50;;;9.42;48.04
63321;BME280;49449;48.800;9.534;2022-11-18T02:06:31;96810.00;;;9.41;47.93
63321;BME280;49449;48.800;9.534;2022-11-18T02:08:59;96807.38;;;9.41;47.96
63321;BME280;49449;48.800;9.534;2022-11-18T02:11:28;96803.66;;;9.42;47.88
63321;BME280;49449;48.800;9.534;2022-11-18T02:14:18;96814.19;;;9.42;47.75
63321;BME280;49449;48.800;9.534;2022-11-18T02:17:00;96811.03;;;9.40;47.75
63321;BME280;49449;48.800;9.534;2022-11-18T02:19:58;96818.41;;;9.33;47.77
63321;BME280;49449;48.800;9.534;2022-11-18T02:22:45;96826.31;;;9.33;47.87
63321;BME280;49449;48.800;9.534;2022-11-18T02:25:19;96830.25;;;9.36;47.94
63321;BME280;49449;48.800;9.534;2022-11-18T02:28:13;96821.56;;;9.35;48.10
63321;BME280;49449;48.800;9.534;2022-11-18T02:30:52;96832.13;;;9.40;47.89
63321;BME280;49449;48.800;9.534;2022-11-18T02:33:24;96828.94;;;9.33;48.07
63321;BME280;49449;48.800;9.534;2022-11-18T02:35:56;96831.34;;;9.35;48.12
63321;BME280;49449;48.800;9.534;2022-11-18T02:38:31;96829.75;;;9.39;47.99
63321;BME280;49449;48.800;9.534;2022-11-18T02:41:04;96834.75;;;9.40;47.97
63321;BME280;49449;48.800;9.534;2022-11-18T02:43:36;96833.72;;;9.36;48.14
63321;BME280;49449;48.800;9.534;2022-11-18T02:46:10;96833.44;;;9.33;48.33
63321;BME280;49449;48.800;9.534;2022-11-18T02:48:43;96833.97;;;9.35;48.21
63321;BME280;49449;48.800;9.534;2022-11-18T02:51:15;96837.13;;;9.37;48.38
63321;BME280;49449;48.800;9.534;2022-11-18T02:53:46;96835.81;;;9.39;48.20
63321;BME280;49449;48.800;9.534;2022-11-18T02:56:16;96832.66;;;9.37;48.01
63321;BME280;49449;48.800;9.534;2022-11-18T02:58:45;96830.81;;;9.38;47.95
63321;BME280;49449;48.800;9.534;2022-11-18T03:01:17;96830.53;;;9.39;47.89
63321;BME280;49449;48.800;9.534;2022-11-18T03:03:46;96832.38;;;9.39;47.91
63321;BME280;49449;48.800;9.534;2022-11-18T03:06:25;96835.28;;;9.37;47.80
63321;BME280;49449;48.800;9.534;2022-11-18T03:09:08;96840.81;;;9.36;47.91
63321;BME280;49449;48.800;9.534;2022-11-18T03:11:43;96840.53;;;9.37;47.94
63321;BME280;49449;48.800;9.534;2022-11-18T03:14:20;96851.34;;;9.36;48.01
63321;BME280;49449;48.800;9.534;2022-11-18T03:16:57;96848.44;;;9.37;47.90
63321;BME280;49449;48.800;9.534;2022-11-18T03:19:33;96854.78;;;9.36;48.10
63321;BME280;49449;48.800;9.534;2022-11-18T03:22:11;96852.66;;;9.33;48.21
63321;BME280;49449;48.800;9.534;2022-11-18T03:24:41;96857.41;;;9.26;48.14
63321;BME280;49449;48.800;9.534;2022-11-18T03:27:14;96862.09;;;9.14;48.45
63321;BME280;49449;48.800;9.534;2022-11-18T03:29:47;96863.41;;;9.11;48.39
63321;BME280;49449;48.800;9.534;2022-11-18T03:32:19;96878.94;;;9.07;48.54
63321;BME280;49449;48.800;9.534;2022-11-18T03:34:52;96882.09;;;9.04;48.42
63321;BME280;49449;48.800;9.534;2022-11-18T03:37:23;96888.31;;;8.78;48.97
63321;BME280;49449;48.800;9.534;2022-11-18T03:39:54;96886.97;;;8.75;49.02
63321;BME280;49449;48.800;9.534;2022-11-18T03:42:28;96878.84;;;8.82;48.81
63321;BME280;49449;48.800;9.534;2022-11-18T03:45:02;96902.56;;;8.87;48.90
63321;BME280;49449;48.800;9.534;2022-11-18T03:47:38;96906.78;;;8.93;48.86
63321;BME280;49449;48.800;9.534;2022-11-18T03:50:11;96910.25;;;8.99;48.60
63321;BME280;49449;48.800;9.534;2022-11-18T03:52:40;96912.88;;;8.94;48.73
63321;BME280;49449;48.800;9.534;2022-11-18T03:55:13;96918.34;;;8.82;48.93
63321;BME280;49449;48.800;9.534;2022-11-18T03:57:47;96922.47;;;8.72;49.01
63321;BME280;49449;48.800;9.534;2022-11-18T04:00:17;96925.38;;;8.71;49.01
63321;BME280;49449;48.800;9.534;2022-11-18T04:02:48;96924.03;;;8.73;48.92
63321;BME280;49449;48.800;9.534;2022-11-18T04:05:17;96925.16;;;8.78;48.85
63321;BME280;49449;48.800;9.534;2022-11-18T04:07:53;96932.72;;;8.74;48.82
63321;BME280;49449;48.800;9.534;2022-11-18T04:10:26;96928.75;;;8.66;49.04
63321;BME280;49449;48.800;9.534;2022-11-18T04:13:00;96935.91;;;8.71;49.00
63321;BME280;49449;48.800;9.534;2022-11-18T04:15:32;96940.44;;;8.81;48.83
63321;BME280;49449;48.800;9.534;2022-11-18T04:18:01;96945.72;;;8.81;48.75
63321;BME280;49449;48.800;9.534;2022-11-18T04:20:29;96945.44;;;8.77;48.78
63321;BME280;49449;48.800;9.534;2022-11-18T04:22:58;96955.66;;;8.73;48.85
63321;BME280;49449;48.800;9.534;2022-11-18T04:25:26;96948.53;;;8.69;48.83
63321;BME280;49449;48.800;9.534;2022-11-18T04:27:53;96947.22;;;8.71;48.75
63321;BME280;49449;48.800;9.534;2022-11-18T04:30:21;96955.66;;;8.73;48.85
63321;BME280;49449;48.800;9.534;2022-11-18T04:32:49;96959.13;;;8.79;48.60
63321;BME280;49449;48.800;9.534;2022-11-18T04:35:18;96967.19;;;8.67;48.73
63321;BME280;49449;48.800;9.534;2022-11-18T04:37:46;96958.72;;;8.60;48.87
63321;BME280;49449;48.800;9.534;2022-11-18T04:40:14;96966.91;;;8.64;48.54
63321;BME280;49449;48.800;9.534;2022-11-18T04:42:42;96967.13;;;8.57;48.61
63321;BME280;49449;48.800;9.534;2022-11-18T04:45:10;96974.00;;;8.63;48.71
63321;BME280;49449;48.800;9.534;2022-11-18T04:47:38;96970.59;;;8.63;48.41
63321;BME280;49449;48.800;9.534;2022-11-18T04:50:06;96974.25;;;8.62;48.45
63321;BME280;49449;48.800;9.534;2022-11-18T04:52:35;96971.59;;;8.57;48.44
63321;BME280;49449;48.800;9.534;2022-11-18T04:55:04;96973.75;;;8.65;48.16
63321;BME280;49449;48.800;9.534;2022-11-18T04:57:32;96982.22;;;8.72;48.28
63321;BME280;49449;48.800;9.534;2022-11-18T04:59:59;96970.63;;;8.68;48.27
63321;BME280;49449;48.800;9.534;2022-11-18T05:02:27;96974.53;;;8.60;48.27
63321;BME280;49449;48.800;9.534;2022-11-18T05:04:55;96984.50;;;8.58;48.15
63321;BME280;49449;48.800;9.534;2022-11-18T05:07:22;96980.28;;;8.57;48.23
63321;BME280;49449;48.800;9.534;2022-11-18T05:09:52;96987.59;;;8.50;47.85
63321;BME280;49449;48.800;9.534;2022-11-18T05:12:19;96989.28;;;8.29;48.15
63321;BME280;49449;48.800;9.534;2022-11-18T05:15:05;96989.56;;;8.32;47.81
63321;BME280;49449;48.800;9.534;2022-11-18T05:17:33;96996.09;;;8.25;47.88
63321;BME280;49449;48.800;9.534;2022-11-18T05:20:01;96991.91;;;8.29;48.01
63321;BME280;49449;48.800;9.534;2022-11-18T05:22:29;96996.78;;;8.15;47.30
63321;BME280;49449;48.800;9.534;2022-11-18T05:24:58;97001.25;;;8.14;48.00
63321;BME280;49449;48.800;9.534;2022-11-18T05:27:26;97006.28;;;8.16;47.93
63321;BME280;49449;48.800;9.534;2022-11-18T05:29:53;96998.16;;;8.23;47.86
63321;BME280;49449;48.800;9.534;2022-11-18T05:32:21;96999.59;;;8.35;47.66
63321;BME280;49449;48.800;9.534;2022-11-18T05:34:49;97002.81;;;8.43;47.77
63321;BME280;49449;48.800;9.534;2022-11-18T05:37:17;97006.03;;;8.50;47.79
63321;BME280;49449;48.800;9.534;2022-11-18T05:39:45;97000.81;;;8.55;47.71
63321;BME280;49449;48.800;9.534;2022-11-18T05:42:14;97007.19;;;8.64;47.77
63321;BME280;49449;48.800;9.534;2022-11-18T05:44:59;97015.09;;;8.64;47.67
63321;BME280;49449;48.800;9.534;2022-11-18T05:47:27;97017.75;;;8.69;47.49
63321;BME280;49449;48.800;9.534;2022-11-18T05:50:15;97028.59;;;8.73;47.59
63321;BME280;49449;48.800;9.534;2022-11-18T05:52:46;97025.72;;;8.75;47.57
63321;BME280;49449;48.800;9.534;2022-11-18T05:55:15;97032.06;;;8.79;47.63
63321;BME280;49449;48.800;9.534;2022-11-18T05:57:45;97034.94;;;8.77;47.78
63321;BME280;49449;48.800;9.534;2022-11-18T06:00:14;97033.63;;;8.75;47.63
63321;BME280;49449;48.800;9.534;2022-11-18T06:02:44;97040.38;;;8.65;47.85
63321;BME280;49449;48.800;9.534;2022-11-18T06:05:15;97042.44;;;8.63;47.48
63321;BME280;49449;48.800;9.534;2022-11-18T06:07:45;97044.84;;;8.65;47.35
63321;BME280;49449;48.800;9.534;2022-11-18T06:10:16;97049.03;;;8.61;47.57
63321;BME280;49449;48.800;9.534;2022-11-18T06:12:49;97049.97;;;8.49;47.77
63321;BME280;49449;48.800;9.534;2022-11-18T06:15:20;97053.38;;;8.45;47.97
63321;BME280;49449;48.800;9.534;2022-11-18T06:17:54;97056.34;;;8.26;48.20
63321;BME280;49449;48.800;9.534;2022-11-18T06:20:23;97056.09;;;8.28;48.09
63321;BME280;49449;48.800;9.534;2022-11-18T06:22:54;97059.25;;;8.25;48.19
63321;BME280;49449;48.800;9.534;2022-11-18T06:25:23;97063.88;;;8.17;48.25
63321;BME280;49449;48.800;9.534;2022-11-18T06:27:54;97053.88;;;8.14;48.50
63321;BME280;49449;48.800;9.534;2022-11-18T06:30:23;97063.28;;;8.10;48.50
63321;BME280;49449;48.800;9.534;2022-11-18T06:32:51;97058.38;;;8.19;48.41
63321;BME280;49449;48.800;9.534;2022-11-18T06:35:19;97062.47;;;8.32;48.08
63321;BME280;49449;48.800;9.534;2022-11-18T06:37:47;97068.03;;;8.35;47.99
63321;BME280;49449;48.800;9.534;2022-11-18T06:40:15;97064.28;;;8.31;47.78
63321;BME280;49449;48.800;9.534;2022-11-18T06:42:43;97072.94;;;8.27;47.45
63321;BME280;49449;48.800;9.534;2022-11-18T06:45:30;97076.19;;;8.12;47.80
63321;BME280;49449;48.800;9.534;2022-11-18T06:47:58;97072.03;;;8.16;47.56
63321;BME280;49449;48.800;9.534;2022-11-18T06:50:26;97083.16;;;8.23;47.72
63321;BME280;49449;48.800;9.534;2022-11-18T06:52:54;97081.66;;;8.32;47.64
63321;BME280;49449;48.800;9.534;2022-11-18T06:55:22;97081.19;;;8.35;47.67
63321;BME280;49449;48.800;9.534;2022-11-18T06:57:50;97085.19;;;8.43;47.71
63321;BME280;49449;48.800;9.534;2022-11-18T07:00:18;97089.66;;;8.43;47.68
63321;BME280;49449;48.800;9.534;2022-11-18T07:02:47;97096.00;;;8.47;47.41
63321;BME280;49449;48.800;9.534;2022-11-18T07:05:15;97096.06;;;8.52;47.44
63321;BME280;49449;48.800;9.534;2022-11-18T07:07:43;97099.53;;;8.58;47.12
63321;BME280;49449;48.800;9.534;2022-11-18T07:10:10;97094.22;;;8.52;47.01
63321;BME280;49449;48.800;9.534;2022-11-18T07:12:38;97097.41;;;8.54;47.18
63321;BME280;49449;48.800;9.534;2022-11-18T07:15:07;97104.00;;;8.57;47.16
63321;BME280;49449;48.800;9.534;2022-11-18T07:17:35;97102.47;;;8.61;47.23
63321;BME280;49449;48.800;9.534;2022-11-18T07:20:05;97110.41;;;8.66;47.49
63321;BME280;49449;48.800;9.534;2022-11-18T07:22:33;97120.19;;;8.71;47.64
63321;BME280;49449;48.800;9.534;2022-11-18T07:25:01;97114.94;;;8.71;47.70
63321;BME280;49449;48.800;9.534;2022-11-18T07:27:29;97119.47;;;8.76;47.69
63321;BME280;49449;48.800;9.534;2022-11-18T07:29:56;97129.00;;;8.82;47.54
63321;BME280;49449;48.800;9.534;2022-11-18T07:32:24;97125.06;;;8.84;47.49
63321;BME280;49449;48.800;9.534;2022-11-18T07:34:55;97122.69;;;8.83;47.67
63321;BME280;49449;48.800;9.534;2022-11-18T07:37:24;97134.34;;;8.87;47.55
63321;BME280;49449;48.800;9.534;2022-11-18T07:39:53;97134.88;;;8.89;47.71
63321;BME280;49449;48.800;9.534;2022-11-18T07:42:21;97133.06;;;8.95;47.58
63321;BME280;49449;48.800;9.534;2022-11-18T07:44:49;97139.41;;;8.94;47.59
63321;BME280;49449;48.800;9.534;2022-11-18T07:47:17;97143.06;;;8.92;47.67
63321;BME280;49449;48.800;9.534;2022-11-18T07:49:45;97147.31;;;8.94;47.67
63321;BME280;49449;48.800;9.534;2022-11-18T07:52:13;97154.38;;;8.93;47.74
63321;BME280;49449;48.800;9.534;2022-11-18T07:54:42;97156.22;;;8.92;47.88
63321;BME280;49449;48.800;9.534;2022-11-18T07:57:09;97159.66;;;8.93;47.07
63321;BME280;49449;48.800;9.534;2022-11-18T07:59:37;97162.00;;;8.89;47.78
63321;BME280;49449;48.800;9.534;2022-11-18T08:02:05;97168.03;;;8.90;47.78
63321;BME280;49449;48.800;9.534;2022-11-18T08:04:35;97168.56;;;8.87;47.59
63321;BME280;49449;48.800;9.534;2022-11-18T08:07:03;97171.75;;;8.89;47.86
63321;BME280;49449;48.800;9.534;2022-11-18T08:09:32;97171.00;;;8.94;47.76
63321;BME280;49449;48.800;9.534;2022-11-18T08:12:01;97172.56;;;8.95;47.78
63321;BME280;49449;48.800;9.534;2022-11-18T08:14:28;97174.97;;;8.96;47.55
63321;BME280;49449;48.800;9.534;2022-11-18T08:16:59;97169.91;;;8.89;47.88
63321;BME280;49449;48.800;9.534;2022-11-18T08:19:27;97177.31;;;8.92;47.99
63321;BME280;49449;48.800;9.534;2022-11-18T08:21:55;97190.22;;;8.94;47.66
63321;BME280;49449;48.800;9.534;2022-11-18T08:24:23;97180.72;;;8.93;47.85
63321;BME280;49449;48.800;9.534;2022-11-18T08:26:51;97181.84;;;8.97;47.56
63321;BME280;49449;48.800;9.534;2022-11-18T08:29:20;97188.69;;;8.98;47.52
63321;BME280;49449;48.800;9.534;2022-11-18T08:31:50;97187.88;;;8.98;47.62
63321;BME280;49449;48.800;9.534;2022-11-18T08:34:18;97198.97;;;9.00;47.79
63321;BME280;49449;48.800;9.534;2022-11-18T08:36:46;97194.50;;;9.00;47.80
63321;BME280;49449;48.800;9.534;2022-11-18T08:39:15;97203.41;;;8.94;47.58
63321;BME280;49449;48.800;9.534;2022-11-18T08:41:44;97213.16;;;8.94;47.73
63321;BME280;49449;48.800;9.534;2022-11-18T08:44:14;97213.44;;;8.97;48.01
63321;BME280;49449;48.800;9.534;2022-11-18T08:46:44;97215.56;;;9.00;47.70
63321;BME280;49449;48.800;9.534;2022-11-18T08:49:12;97215.56;;;9.00;48.64
63321;BME280;49449;48.800;9.534;2022-11-18T08:51:40;97215.81;;;8.99;48.43
63321;BME280;49449;48.800;9.534;2022-11-18T08:54:08;97221.91;;;8.99;49.09
63321;BME280;49449;48.800;9.534;2022-11-18T08:56:36;97222.69;;;9.00;48.27
63321;BME280;49449;48.800;9.534;2022-11-18T08:59:05;97223.72;;;8.99;48.13
63321;BME280;49449;48.800;9.534;2022-11-18T09:01:34;97230.28;;;8.96;47.90
63321;BME280;49449;48.800;9.534;2022-11-18T09:04:04;97235.84;;;9.00;47.77
63321;BME280;49449;48.800;9.534;2022-11-18T09:06:33;97230.88;;;9.03;47.71
63321;BME280;49449;48.800;9.534;2022-11-18T09:09:04;97234.31;;;9.04;47.47
63321;BME280;49449;48.800;9.534;2022-11-18T09:11:35;97233.94;;;8.95;47.63
63321;BME280;49449;48.800;9.534;2022-11-18T09:14:05;97235.06;;;8.99;47.84
63321;BME280;49449;48.800;9.534;2022-11-18T09:16:54;97245.91;;;9.03;47.51
63321;BME280;49449;48.800;9.534;2022-11-18T09:19:23;97241.13;;;9.00;47.96
63321;BME280;49449;48.800;9.534;2022-11-18T09:22:11;97242.44;;;9.02;48.16
63321;BME280;49449;48.800;9.534;2022-11-18T09:24:39;97253.03;;;9.07;48.01
63321;BME280;49449;48.800;9.534;2022-11-18T09:27:09;97243.84;;;9.10;47.92
63321;BME280;49449;48.800;9.534;2022-11-18T09:29:42;97254.41;;;9.10;47.89
63321;BME280;49449;48.800;9.534;2022-11-18T09:32:10;97263.63;;;9.13;47.68
63321;BME280;49449;48.800;9.534;2022-11-18T09:34:40;97256.25;;;9.15;47.81
63321;BME280;49449;48.800;9.534;2022-11-18T09:37:09;97260.81;;;9.19;47.85
63321;BME280;49449;48.800;9.534;2022-11-18T09:39:37;97262.16;;;9.22;48.00
63321;BME280;49449;48.800;9.534;2022-11-18T09:42:19;97263.97;;;9.21;48.02
63321;BME280;49449;48.800;9.534;2022-11-18T09:45:02;97260.84;;;9.24;47.97
63321;BME280;49449;48.800;9.534;2022-11-18T09:47:36;97274.88;;;9.30;48.20
63321;BME280;49449;48.800;9.534;2022-11-18T09:50:11;97274.31;;;9.28;47.22
63321;BME280;49449;48.800;9.534;2022-11-18T09:53:05;97270.31;;;9.20;47.59
63321;BME280;49449;48.800;9.534;2022-11-18T09:55:37;97270.56;;;9.19;47.17
63321;BME280;49449;48.800;9.534;2022-11-18T09:58:10;97272.69;;;8.95;47.25
63321;BME280;49449;48.800;9.534;2022-11-18T10:00:42;97282.31;;;8.84;47.99
63321;BME280;49449;48.800;9.534;2022-11-18T10:03:15;97278.66;;;8.90;48.14
63321;BME280;49449;48.800;9.534;2022-11-18T10:05:53;97279.09;;;9.04;47.88
63321;BME280;49449;48.800;9.534;2022-11-18T10:08:26;97273.31;;;9.07;47.92
63321;BME280;49449;48.800;9.534;2022-11-18T10:11:00;97282.13;;;9.18;48.08
63321;BME280;49449;48.800;9.534;2022-11-18T10:13:41;97285.09;;;9.26;48.32
63321;BME280;49449;48.800;9.534;2022-11-18T10:16:24;97281.69;;;9.26;48.19
63321;BME280;49449;48.800;9.534;2022-11-18T10:19:02;97278.00;;;9.27;47.95
63321;BME280;49449;48.800;9.534;2022-11-18T10:21:43;97282.91;;;9.18;47.25
63321;BME280;49449;48.800;9.534;2022-11-18T10:24:18;97275.53;;;9.15;48.10
63321;BME280;49449;48.800;9.534;2022-11-18T10:26:46;97284.75;;;9.18;48.33
63321;BME280;49449;48.800;9.534;2022-11-18T10:29:16;97291.44;;;9.25;48.51
63321;BME280;49449;48.800;9.534;2022-11-18T10:31:53;97283.84;;;9.29;48.65
63321;BME280;49449;48.800;9.534;2022-11-18T10:34:25;97290.72;;;9.35;48.43
63321;BME280;49449;48.800;9.534;2022-11-18T10:37:06;97289.94;;;9.35;48.57
63321;BME280;49449;48.800;9.534;2022-11-18T10:39:49;97294.38;;;9.29;48.38
63321;BME280;49449;48.800;9.534;2022-11-18T10:42:24;97287.06;;;9.36;48.40
63321;BME280;49449;48.800;9.534;2022-11-18T10:45:14;97288.13;;;9.40;48.73
63321;BME280;49449;48.800;9.534;2022-11-18T10:47:57;97298.16;;;9.38;48.56
63321;BME280;49449;48.800;9.534;2022-11-18T10:50:32;97292.63;;;9.40;48.68
63321;BME280;49449;48.800;9.534;2022-11-18T10:53:05;97298.72;;;9.45;48.62
63321;BME280;49449;48.800;9.534;2022-11-18T10:55:33;97300.88;;;9.48;48.68
63321;BME280;49449;48.800;9.534;2022-11-18T10:58:06;97305.03;;;9.44;48.93
63321;BME280;49449;48.800;9.534;2022-11-18T11:00:46;97302.41;;;9.44;48.80
63321;BME280;49449;48.800;9.534;2022-11-18T11:06:31;97290.97;;;9.34;49.26
63321;BME280;49449;48.800;9.534;2022-11-18T11:09:07;97301.81;;;9.37;49.18
63321;BME280;49449;48.800;9.534;2022-11-18T11:11:37;97290.28;;;9.43;48.83
63321;BME280;49449;48.800;9.534;2022-11-18T11:14:21;97294.78;;;9.48;49.03
63321;BME280;49449;48.800;9.534;2022-11-18T11:17:03;97293.75;;;9.49;48.68
63321;BME280;49449;48.800;9.534;2022-11-18T11:19:46;97292.91;;;9.43;48.80
63321;BME280;49449;48.800;9.534;2022-11-18T11:22:16;97301.75;;;9.32;48.51
63321;BME280;49449;48.800;9.534;2022-11-18T11:24:46;97303.06;;;9.29;48.80
63321;BME280;49449;48.800;9.534;2022-11-18T11:27:26;97306.78;;;9.34;49.17
63321;BME280;49449;48.800;9.534;2022-11-18T11:30:19;97300.78;;;9.38;48.95
63321;BME280;49449;48.800;9.534;2022-11-18T11:33:10;97300.00;;;9.38;48.79
63321;BME280;49449;48.800;9.534;2022-11-18T11:35:46;97305.00;;;9.39;49.19
63321;BME280;49449;48.800;9.534;2022-11-18T11:38:26;97299.72;;;9.39;49.07
63321;BME280;49449;48.800;9.534;2022-11-18T11:41:05;97305.00;;;9.39;49.23
63321;BME280;49449;48.800;9.534;2022-11-18T11:43:47;97302.94;;;9.46;48.84
63321;BME280;49449;48.800;9.534;2022-11-18T11:46:26;97305.00;;;9.39;49.15
63321;BME280;49449;48.800;9.534;2022-11-18T11:49:10;97310.84;;;9.46;49.18
63321;BME280;49449;48.800;9.534;2022-11-18T11:51:49;97311.97;;;9.51;49.08
63321;BME280;49449;48.800;9.534;2022-11-18T11:54:25;97311.44;;;9.48;49.00
63321;BME280;49449;48.800;9.534;2022-11-18T11:57:03;97320.41;;;9.53;49.56
63321;BME280;49449;48.800;9.534;2022-11-18T11:59:38;97323.09;;;9.30;49.21
63321;BME280;49449;48.800;9.534;2022-11-18T12:02:35;97319.72;;;9.35;49.83
63321;BME280;49449;48.800;9.534;2022-11-18T12:05:14;97324.56;;;9.43;49.59
63321;BME280;49449;48.800;9.534;2022-11-18T12:07:49;97319.03;;;9.45;49.15
63321;BME280;49449;48.800;9.534;2022-11-18T12:10:35;97314.56;;;9.45;49.16
63321;BME280;49449;48.800;9.534;2022-11-18T12:13:20;97317.03;;;9.57;49.28
63321;BME280;49449;48.800;9.534;2022-11-18T12:16:00;97315.28;;;9.68;49.04
63321;BME280;49449;48.800;9.534;2022-11-18T12:18:34;97318.34;;;9.87;49.07
63321;BME280;49449;48.800;9.534;2022-11-18T12:21:08;97312.19;;;10.09;48.95
63321;BME280;49449;48.800;9.534;2022-11-18T12:24:31;97320.47;;;10.28;49.04
63321;BME280;49449;48.800;9.534;2022-11-18T12:27:12;97315.25;;;10.38;48.73
63321;BME280;49449;48.800;9.534;2022-11-18T12:29:53;97322.88;;;10.34;48.16
63321;BME280;49449;48.800;9.534;2022-11-18T12:32:28;97323.97;;;10.38;48.80
63321;BME280;49449;48.800;9.534;2022-11-18T12:34:59;97330.88;;;10.44;47.52
63321;BME280;49449;48.800;9.534;2022-11-18T12:37:45;97329.78;;;10.40;47.43
63321;BME280;49449;48.800;9.534;2022-11-18T12:40:39;97322.34;;;10.32;47.81
63321;BME280;49449;48.800;9.534;2022-11-18T12:46:48;97326.94;;;10.10;46.92
63321;BME280;49449;48.800;9.534;2022-11-18T12:52:52;97328.81;;;10.09;47.49
63321;BME280;49449;48.800;9.534;2022-11-18T12:55:29;97335.16;;;10.13;47.72
63321;BME280;49449;48.800;9.534;2022-11-18T12:57:58;97334.38;;;10.13;47.73
63321;BME280;49449;48.800;9.534;2022-11-18T13:00:30;97341.66;;;10.00;48.28
63321;BME280;49449;48.800;9.534;2022-11-18T13:03:24;97331.66;;;10.02;48.20
63321;BME280;49449;48.800;9.534;2022-11-18T13:06:00;97338.84;;;10.12;47.73
63321;BME280;49449;48.800;9.534;2022-11-18T13:08:30;97336.69;;;10.04;48.24
63321;BME280;49449;48.800;9.534;2022-11-18T13:11:08;97338.81;;;10.07;47.93
63321;BME280;49449;48.800;9.534;2022-11-18T13:13:55;97332.75;;;10.12;48.00
63321;BME280;49449;48.800;9.534;2022-11-18T13:16:43;97343.59;;;10.15;47.76
63321;BME280;49449;48.800;9.534;2022-11-18T13:19:32;97346.78;;;10.12;47.21
63321;BME280;49449;48.800;9.534;2022-11-18T13:22:02;97344.38;;;10.11;46.77
63321;BME280;49449;48.800;9.534;2022-11-18T13:24:49;97343.56;;;10.05;46.36
63321;BME280;49449;48.800;9.534;2022-11-18T13:27:27;97348.56;;;10.01;45.94
63321;BME280;49449;48.800;9.534;2022-11-18T13:30:03;97351.88;;;9.92;45.75
63321;BME280;49449;48.800;9.534;2022-11-18T13:32:35;97348.41;;;9.86;46.32
63321;BME280;49449;48.800;9.534;2022-11-18T13:35:15;97350.00;;;9.87;46.94
63321;BME280;49449;48.800;9.534;2022-11-18T13:37:51;97349.72;;;9.83;46.37
63321;BME280;49449;48.800;9.534;2022-11-18T13:40:23;97349.50;;;9.90;46.18
63321;BME280;49449;48.800;9.534;2022-11-18T13:42:52;97354.97;;;9.83;46.46
63321;BME280;49449;48.800;9.534;2022-11-18T13:45:25;97351.09;;;9.91;44.86
63321;BME280;49449;48.800;9.534;2022-11-18T13:47:57;97350.69;;;9.77;45.56
63321;BME280;49449;48.800;9.534;2022-11-18T13:50:31;97354.38;;;9.76;46.35